sensor_id;sensor_type;location;lat;lon;timestamp;P1;durP1;ratioP1;P2;durP2;ratioP2
2802;SDS011;1409;51.154;6.938;2024-03-25T00:01:23;10.17;;;2.50;;
2802;SDS011;1409;51.154;6.938;2024-03-25T00:03:50;9.10;;;2.93;;
2802;SDS011;1409;51.154;6.938;2024-03-25T00:06:17;8.97;;;2.30;;
2802;SDS011;1409;51.154;6.938;2024-03-25T00:08:44;5.40;;;2.17;;
2802;SDS011;1409;51.154;6.938;2024-03-25T00:11:12;9.50;;;2.20;;
2802;SDS011;1409;51.154;6.938;2024-03-25T00:13:40;6.43;;;2.30;;
2802;SDS011;1409;51.154;6.938;2024-03-25T00:16:08;5.70;;;2.17;;
2802;SDS011;1409;51.154;6.938;2024-03-25T00:18:34;8.70;;;2.30;;
2802;SDS011;1409;51.154;6.938;2024-03-25T00:21:02;8.37;;;2.43;;
2802;SDS011;1409;51.154;6.938;2024-03-25T00:23:29;8.27;;;2.40;;
2802;SDS011;1409;51.154;6.938;2024-03-25T00:25:56;6.67;;;2.20;;
2802;SDS011;1409;51.154;6.938;2024-03-25T00:28:23;8.00;;;2.90;;
2802;SDS011;1409;51.154;6.938;2024-03-25T00:30:51;11.53;;;2.67;;
2802;SDS011;1409;51.154;6.938;2024-03-25T00:33:18;9.93;;;3.93;;
2802;SDS011;1409;51.154;6.938;2024-03-25T00:35:45;4.20;;;2.60;;
2802;SDS011;1409;51.154;6.938;2024-03-25T00:38:12;5.03;;;2.77;;
2802;SDS011;1409;51.154;6.938;2024-03-25T00:40:39;8.50;;;3.40;;
2802;SDS011;1409;51.154;6.938;2024-03-25T00:43:06;8.90;;;3.10;;
2802;SDS011;1409;51.154;6.938;2024-03-25T00:45:34;14.27;;;2.50;;
2802;SDS011;1409;51.154;6.938;2024-03-25T00:48:02;6.47;;;2.63;;
2802;SDS011;1409;51.154;6.938;2024-03-25T00:50:29;8.43;;;3.13;;
2802;SDS011;1409;51.154;6.938;2024-03-25T00:52:56;8.30;;;3.30;;
2802;SDS011;1409;51.154;6.938;2024-03-25T00:55:23;6.03;;;2.80;;
2802;SDS011;1409;51.154;6.938;2024-03-25T00:57:50;8.97;;;3.27;;
2802;SDS011;1409;51.154;6.938;2024-03-25T01:00:18;9.07;;;3.00;;
2802;SDS011;1409;51.154;6.938;2024-03-25T01:02:45;5.23;;;2.77;;
2802;SDS011;1409;51.154;6.938;2024-03-25T01:05:13;7.57;;;3.20;;
2802;SDS011;1409;51.154;6.938;2024-03-25T01:07:40;6.47;;;3.50;;
2802;SDS011;1409;51.154;6.938;2024-03-25T01:10:08;8.17;;;2.80;;
2802;SDS011;1409;51.154;6.938;2024-03-25T01:12:35;11.63;;;3.53;;
2802;SDS011;1409;51.154;6.938;2024-03-25T01:15:02;11.57;;;3.43;;
2802;SDS011;1409;51.154;6.938;2024-03-25T01:17:30;6.73;;;2.90;;
2802;SDS011;1409;51.154;6.938;2024-03-25T01:19:58;6.50;;;2.93;;
2802;SDS011;1409;51.154;6.938;2024-03-25T01:22:26;13.30;;;3.67;;
2802;SDS011;1409;51.154;6.938;2024-03-25T01:24:53;11.03;;;3.23;;
2802;SDS011;1409;51.154;6.938;2024-03-25T01:27:20;9.03;;;3.23;;
2802;SDS011;1409;51.154;6.938;2024-03-25T01:29:47;7.40;;;3.67;;
2802;SDS011;1409;51.154;6.938;2024-03-25T01:32:14;10.70;;;3.93;;
2802;SDS011;1409;51.154;6.938;2024-03-25T01:34:41;6.47;;;2.87;;
2802;SDS011;1409;51.154;6.938;2024-03-25T01:37:09;9.07;;;2.97;;
2802;SDS011;1409;51.154;6.938;2024-03-25T01:39:38;7.70;;;3.77;;
2802;SDS011;1409;51.154;6.938;2024-03-25T01:42:05;6.40;;;3.07;;
2802;SDS011;1409;51.154;6.938;2024-03-25T01:44:32;5.60;;;2.73;;
2802;SDS011;1409;51.154;6.938;2024-03-25T01:46:59;8.60;;;3.47;;
2802;SDS011;1409;51.154;6.938;2024-03-25T01:49:27;5.73;;;2.80;;
2802;SDS011;1409;51.154;6.938;2024-03-25T01:51:54;8.77;;;2.80;;
2802;SDS011;1409;51.154;6.938;2024-03-25T01:54:21;7.07;;;3.07;;
2802;SDS011;1409;51.154;6.938;2024-03-25T01:56:51;8.20;;;2.60;;
2802;SDS011;1409;51.154;6.938;2024-03-25T01:59:20;11.33;;;3.17;;
2802;SDS011;1409;51.154;6.938;2024-03-25T02:01:47;6.00;;;2.90;;
2802;SDS011;1409;51.154;6.938;2024-03-25T02:04:16;10.50;;;2.70;;
2802;SDS011;1409;51.154;6.938;2024-03-25T02:06:42;6.37;;;3.17;;
2802;SDS011;1409;51.154;6.938;2024-03-25T02:09:13;9.63;;;3.10;;
2802;SDS011;1409;51.154;6.938;2024-03-25T02:11:40;8.63;;;3.03;;
2802;SDS011;1409;51.154;6.938;2024-03-25T02:14:11;7.77;;;2.83;;
2802;SDS011;1409;51.154;6.938;2024-03-25T02:16:38;7.87;;;3.07;;
2802;SDS011;1409;51.154;6.938;2024-03-25T02:19:05;12.10;;;3.63;;
2802;SDS011;1409;51.154;6.938;2024-03-25T02:21:34;8.47;;;3.33;;
2802;SDS011;1409;51.154;6.938;2024-03-25T02:24:01;9.40;;;3.17;;
2802;SDS011;1409;51.154;6.938;2024-03-25T02:26:31;9.67;;;2.60;;
2802;SDS011;1409;51.154;6.938;2024-03-25T02:28:58;11.67;;;3.30;;
2802;SDS011;1409;51.154;6.938;2024-03-25T02:31:25;7.10;;;2.70;;
2802;SDS011;1409;51.154;6.938;2024-03-25T02:33:53;10.00;;;2.63;;
2802;SDS011;1409;51.154;6.938;2024-03-25T02:36:19;11.37;;;3.37;;
2802;SDS011;1409;51.154;6.938;2024-03-25T02:38:47;8.30;;;3.43;;
2802;SDS011;1409;51.154;6.938;2024-03-25T02:41:14;5.93;;;2.40;;
2802;SDS011;1409;51.154;6.938;2024-03-25T02:43:42;8.00;;;3.43;;
2802;SDS011;1409;51.154;6.938;2024-03-25T02:46:09;7.17;;;2.80;;
2802;SDS011;1409;51.154;6.938;2024-03-25T02:48:36;5.90;;;2.40;;
2802;SDS011;1409;51.154;6.938;2024-03-25T02:51:03;6.87;;;2.90;;
2802;SDS011;1409;51.154;6.938;2024-03-25T02:53:31;8.77;;;2.83;;
2802;SDS011;1409;51.154;6.938;2024-03-25T02:55:57;7.43;;;2.40;;
2802;SDS011;1409;51.154;6.938;2024-03-25T02:58:25;9.50;;;2.77;;
2802;SDS011;1409;51.154;6.938;2024-03-25T03:00:53;13.60;;;3.20;;
2802;SDS011;1409;51.154;6.938;2024-03-25T03:03:20;7.67;;;2.60;;
2802;SDS011;1409;51.154;6.938;2024-03-25T03:05:47;5.93;;;2.87;;
2802;SDS011;1409;51.154;6.938;2024-03-25T03:08:15;8.67;;;3.63;;
2802;SDS011;1409;51.154;6.938;2024-03-25T03:10:41;7.00;;;2.70;;
2802;SDS011;1409;51.154;6.938;2024-03-25T03:13:09;10.23;;;3.33;;
2802;SDS011;1409;51.154;6.938;2024-03-25T03:15:36;7.57;;;2.53;;
2802;SDS011;1409;51.154;6.938;2024-03-25T03:18:05;4.40;;;2.77;;
2802;SDS011;1409;51.154;6.938;2024-03-25T03:20:31;11.00;;;3.07;;
2802;SDS011;1409;51.154;6.938;2024-03-25T03:22:59;7.10;;;2.47;;
2802;SDS011;1409;51.154;6.938;2024-03-25T03:25:25;8.43;;;2.63;;
2802;SDS011;1409;51.154;6.938;2024-03-25T03:27:55;7.40;;;3.00;;
2802;SDS011;1409;51.154;6.938;2024-03-25T03:30:21;7.00;;;2.83;;
2802;SDS011;1409;51.154;6.938;2024-03-25T03:32:49;6.53;;;2.40;;
2802;SDS011;1409;51.154;6.938;2024-03-25T03:35:16;8.17;;;3.03;;
2802;SDS011;1409;51.154;6.938;2024-03-25T03:37:44;6.27;;;3.17;;
2802;SDS011;1409;51.154;6.938;2024-03-25T03:40:11;8.97;;;3.00;;
2802;SDS011;1409;51.154;6.938;2024-03-25T03:42:39;5.73;;;2.60;;
2802;SDS011;1409;51.154;6.938;2024-03-25T03:45:06;10.33;;;2.93;;
2802;SDS011;1409;51.154;6.938;2024-03-25T03:47:37;5.40;;;2.50;;
2802;SDS011;1409;51.154;6.938;2024-03-25T03:50:11;9.50;;;3.27;;
2802;SDS011;1409;51.154;6.938;2024-03-25T03:52:40;14.77;;;3.63;;
2802;SDS011;1409;51.154;6.938;2024-03-25T03:55:08;7.57;;;2.90;;
2802;SDS011;1409;51.154;6.938;2024-03-25T03:57:36;9.57;;;2.90;;
2802;SDS011;1409;51.154;6.938;2024-03-25T04:00:02;7.63;;;3.07;;
2802;SDS011;1409;51.154;6.938;2024-03-25T04:02:37;10.87;;;3.30;;
2802;SDS011;1409;51.154;6.938;2024-03-25T04:05:04;6.57;;;2.70;;
2802;SDS011;1409;51.154;6.938;2024-03-25T04:07:32;7.33;;;3.07;;
2802;SDS011;1409;51.154;6.938;2024-03-25T04:10:00;9.70;;;3.47;;
2802;SDS011;1409;51.154;6.938;2024-03-25T04:12:29;4.13;;;1.90;;
2802;SDS011;1409;51.154;6.938;2024-03-25T04:14:55;9.33;;;2.73;;
2802;SDS011;1409;51.154;6.938;2024-03-25T04:17:23;10.53;;;3.10;;
2802;SDS011;1409;51.154;6.938;2024-03-25T04:19:50;5.80;;;3.87;;
2802;SDS011;1409;51.154;6.938;2024-03-25T04:22:17;4.47;;;2.83;;
2802;SDS011;1409;51.154;6.938;2024-03-25T04:24:44;6.53;;;3.10;;
2802;SDS011;1409;51.154;6.938;2024-03-25T04:27:13;14.27;;;3.43;;
2802;SDS011;1409;51.154;6.938;2024-03-25T04:29:39;5.33;;;3.10;;
2802;SDS011;1409;51.154;6.938;2024-03-25T04:32:06;5.10;;;2.50;;
2802;SDS011;1409;51.154;6.938;2024-03-25T04:34:34;7.77;;;2.80;;
2802;SDS011;1409;51.154;6.938;2024-03-25T04:37:01;8.50;;;3.07;;
2802;SDS011;1409;51.154;6.938;2024-03-25T04:39:28;8.27;;;3.30;;
2802;SDS011;1409;51.154;6.938;2024-03-25T04:41:54;4.10;;;2.37;;
2802;SDS011;1409;51.154;6.938;2024-03-25T04:44:22;9.60;;;3.53;;
2802;SDS011;1409;51.154;6.938;2024-03-25T04:46:49;5.43;;;3.10;;
2802;SDS011;1409;51.154;6.938;2024-03-25T04:49:15;9.53;;;2.97;;
2802;SDS011;1409;51.154;6.938;2024-03-25T04:51:45;12.20;;;3.10;;
2802;SDS011;1409;51.154;6.938;2024-03-25T04:54:12;9.03;;;3.57;;
2802;SDS011;1409;51.154;6.938;2024-03-25T04:56:39;8.93;;;3.23;;
2802;SDS011;1409;51.154;6.938;2024-03-25T04:59:06;8.70;;;3.10;;
2802;SDS011;1409;51.154;6.938;2024-03-25T05:01:34;10.17;;;3.27;;
2802;SDS011;1409;51.154;6.938;2024-03-25T05:04:00;7.83;;;3.40;;
2802;SDS011;1409;51.154;6.938;2024-03-25T05:06:27;8.73;;;3.27;;
2802;SDS011;1409;51.154;6.938;2024-03-25T05:08:54;8.20;;;3.23;;
2802;SDS011;1409;51.154;6.938;2024-03-25T05:11:20;13.47;;;4.63;;
2802;SDS011;1409;51.154;6.938;2024-03-25T05:13:47;10.33;;;4.00;;
2802;SDS011;1409;51.154;6.938;2024-03-25T05:16:14;12.70;;;3.17;;
2802;SDS011;1409;51.154;6.938;2024-03-25T05:18:42;5.93;;;3.10;;
2802;SDS011;1409;51.154;6.938;2024-03-25T05:21:08;7.93;;;2.83;;
2802;SDS011;1409;51.154;6.938;2024-03-25T05:23:35;9.67;;;3.27;;
2802;SDS011;1409;51.154;6.938;2024-03-25T05:26:02;8.30;;;2.93;;
2802;SDS011;1409;51.154;6.938;2024-03-25T05:28:28;12.67;;;3.00;;
2802;SDS011;1409;51.154;6.938;2024-03-25T05:30:55;5.40;;;2.77;;
2802;SDS011;1409;51.154;6.938;2024-03-25T05:33:21;10.50;;;3.83;;
2802;SDS011;1409;51.154;6.938;2024-03-25T05:35:49;5.53;;;3.33;;
2802;SDS011;1409;51.154;6.938;2024-03-25T05:38:16;13.27;;;3.50;;
2802;SDS011;1409;51.154;6.938;2024-03-25T05:40:43;6.63;;;3.43;;
2802;SDS011;1409;51.154;6.938;2024-03-25T05:43:11;11.30;;;3.97;;
2802;SDS011;1409;51.154;6.938;2024-03-25T05:45:38;7.30;;;3.73;;
2802;SDS011;1409;51.154;6.938;2024-03-25T05:48:04;8.03;;;3.63;;
2802;SDS011;1409;51.154;6.938;2024-03-25T05:50:31;10.77;;;4.57;;
2802;SDS011;1409;51.154;6.938;2024-03-25T05:52:59;7.70;;;4.27;;
2802;SDS011;1409;51.154;6.938;2024-03-25T05:55:26;6.70;;;3.97;;
2802;SDS011;1409;51.154;6.938;2024-03-25T05:57:52;11.33;;;4.17;;
2802;SDS011;1409;51.154;6.938;2024-03-25T06:00:19;10.77;;;4.47;;
2802;SDS011;1409;51.154;6.938;2024-03-25T06:02:45;10.57;;;3.90;;
2802;SDS011;1409;51.154;6.938;2024-03-25T06:05:12;8.93;;;4.00;;
2802;SDS011;1409;51.154;6.938;2024-03-25T06:07:39;10.03;;;3.47;;
2802;SDS011;1409;51.154;6.938;2024-03-25T06:10:07;8.23;;;3.80;;
2802;SDS011;1409;51.154;6.938;2024-03-25T06:12:34;6.10;;;3.53;;
2802;SDS011;1409;51.154;6.938;2024-03-25T06:15:00;7.77;;;3.27;;
2802;SDS011;1409;51.154;6.938;2024-03-25T06:17:27;6.37;;;3.40;;
2802;SDS011;1409;51.154;6.938;2024-03-25T06:19:54;10.27;;;4.00;;
2802;SDS011;1409;51.154;6.938;2024-03-25T06:22:20;9.73;;;3.90;;
2802;SDS011;1409;51.154;6.938;2024-03-25T06:24:47;15.50;;;4.10;;
2802;SDS011;1409;51.154;6.938;2024-03-25T06:27:15;5.93;;;3.53;;
2802;SDS011;1409;51.154;6.938;2024-03-25T06:29:41;9.20;;;3.77;;
2802;SDS011;1409;51.154;6.938;2024-03-25T06:32:09;8.20;;;4.07;;
2802;SDS011;1409;51.154;6.938;2024-03-25T06:34:55;11.70;;;3.97;;
2802;SDS011;1409;51.154;6.938;2024-03-25T06:37:22;9.17;;;4.33;;
2802;SDS011;1409;51.154;6.938;2024-03-25T06:39:48;8.03;;;3.80;;
2802;SDS011;1409;51.154;6.938;2024-03-25T06:42:16;13.57;;;4.47;;
2802;SDS011;1409;51.154;6.938;2024-03-25T06:44:46;7.30;;;3.57;;
2802;SDS011;1409;51.154;6.938;2024-03-25T06:47:12;12.10;;;3.90;;
2802;SDS011;1409;51.154;6.938;2024-03-25T06:49:39;10.97;;;5.33;;
2802;SDS011;1409;51.154;6.938;2024-03-25T06:52:05;8.83;;;4.23;;
2802;SDS011;1409;51.154;6.938;2024-03-25T06:54:32;9.93;;;3.40;;
2802;SDS011;1409;51.154;6.938;2024-03-25T06:56:59;10.50;;;4.70;;
2802;SDS011;1409;51.154;6.938;2024-03-25T06:59:27;9.90;;;4.57;;
2802;SDS011;1409;51.154;6.938;2024-03-25T07:01:53;13.93;;;4.27;;
2802;SDS011;1409;51.154;6.938;2024-03-25T07:04:20;8.23;;;3.93;;
2802;SDS011;1409;51.154;6.938;2024-03-25T07:06:48;10.17;;;4.27;;
2802;SDS011;1409;51.154;6.938;2024-03-25T07:09:15;7.80;;;3.70;;
2802;SDS011;1409;51.154;6.938;2024-03-25T07:11:41;11.67;;;3.90;;
2802;SDS011;1409;51.154;6.938;2024-03-25T07:14:08;9.37;;;4.83;;
2802;SDS011;1409;51.154;6.938;2024-03-25T07:16:36;10.33;;;4.30;;
2802;SDS011;1409;51.154;6.938;2024-03-25T07:19:03;8.33;;;4.33;;
2802;SDS011;1409;51.154;6.938;2024-03-25T07:21:29;12.97;;;4.47;;
2802;SDS011;1409;51.154;6.938;2024-03-25T07:23:56;9.47;;;4.17;;
2802;SDS011;1409;51.154;6.938;2024-03-25T07:26:22;13.47;;;5.13;;
2802;SDS011;1409;51.154;6.938;2024-03-25T07:28:49;5.90;;;3.70;;
2802;SDS011;1409;51.154;6.938;2024-03-25T07:31:15;14.50;;;4.07;;
2802;SDS011;1409;51.154;6.938;2024-03-25T07:33:43;9.47;;;4.33;;
2802;SDS011;1409;51.154;6.938;2024-03-25T07:36:10;8.40;;;3.80;;
2802;SDS011;1409;51.154;6.938;2024-03-25T07:38:37;11.63;;;4.93;;
2802;SDS011;1409;51.154;6.938;2024-03-25T07:41:03;7.80;;;3.83;;
2802;SDS011;1409;51.154;6.938;2024-03-25T07:43:30;11.07;;;4.40;;
2802;SDS011;1409;51.154;6.938;2024-03-25T07:45:57;12.50;;;4.00;;
2802;SDS011;1409;51.154;6.938;2024-03-25T07:48:24;8.23;;;3.97;;
2802;SDS011;1409;51.154;6.938;2024-03-25T07:50:52;6.87;;;4.40;;
2802;SDS011;1409;51.154;6.938;2024-03-25T07:53:18;9.93;;;4.20;;
2802;SDS011;1409;51.154;6.938;2024-03-25T07:55:45;10.87;;;4.07;;
2802;SDS011;1409;51.154;6.938;2024-03-25T07:58:12;12.87;;;3.90;;
2802;SDS011;1409;51.154;6.938;2024-03-25T08:00:38;6.43;;;3.50;;
2802;SDS011;1409;51.154;6.938;2024-03-25T08:03:05;10.67;;;3.60;;
2802;SDS011;1409;51.154;6.938;2024-03-25T08:05:31;7.87;;;3.10;;
2802;SDS011;1409;51.154;6.938;2024-03-25T08:07:59;8.80;;;4.30;;
2802;SDS011;1409;51.154;6.938;2024-03-25T08:10:26;7.50;;;3.43;;
2802;SDS011;1409;51.154;6.938;2024-03-25T08:12:52;6.37;;;3.53;;
2802;SDS011;1409;51.154;6.938;2024-03-25T08:15:19;10.17;;;3.80;;
2802;SDS011;1409;51.154;6.938;2024-03-25T08:17:45;8.53;;;3.73;;
2802;SDS011;1409;51.154;6.938;2024-03-25T08:20:12;7.83;;;3.47;;
2802;SDS011;1409;51.154;6.938;2024-03-25T08:22:39;13.13;;;4.60;;
2802;SDS011;1409;51.154;6.938;2024-03-25T08:25:07;9.73;;;3.43;;
2802;SDS011;1409;51.154;6.938;2024-03-25T08:27:34;8.10;;;3.43;;
2802;SDS011;1409;51.154;6.938;2024-03-25T08:30:00;12.73;;;4.00;;
2802;SDS011;1409;51.154;6.938;2024-03-25T08:32:27;8.37;;;3.47;;
2802;SDS011;1409;51.154;6.938;2024-03-25T08:34:53;9.07;;;3.67;;
2802;SDS011;1409;51.154;6.938;2024-03-25T08:37:20;10.50;;;3.93;;
2802;SDS011;1409;51.154;6.938;2024-03-25T08:39:46;7.20;;;3.37;;
2802;SDS011;1409;51.154;6.938;2024-03-25T08:42:14;9.83;;;3.57;;
2802;SDS011;1409;51.154;6.938;2024-03-25T08:44:41;8.67;;;3.30;;
2802;SDS011;1409;51.154;6.938;2024-03-25T08:47:07;7.07;;;3.27;;
2802;SDS011;1409;51.154;6.938;2024-03-25T08:49:34;6.40;;;3.37;;
2802;SDS011;1409;51.154;6.938;2024-03-25T08:52:00;8.20;;;3.23;;
2802;SDS011;1409;51.154;6.938;2024-03-25T08:54:27;7.40;;;3.40;;
2802;SDS011;1409;51.154;6.938;2024-03-25T08:56:54;7.70;;;3.10;;
2802;SDS011;1409;51.154;6.938;2024-03-25T08:59:21;9.37;;;2.90;;
2802;SDS011;1409;51.154;6.938;2024-03-25T09:01:48;6.27;;;3.20;;
2802;SDS011;1409;51.154;6.938;2024-03-25T09:04:14;4.43;;;2.27;;
2802;SDS011;1409;51.154;6.938;2024-03-25T09:06:41;8.57;;;2.80;;
2802;SDS011;1409;51.154;6.938;2024-03-25T09:09:08;10.13;;;2.10;;
2802;SDS011;1409;51.154;6.938;2024-03-25T09:11:53;6.33;;;2.70;;
2802;SDS011;1409;51.154;6.938;2024-03-25T09:14:19;5.40;;;2.13;;
2802;SDS011;1409;51.154;6.938;2024-03-25T09:16:47;5.03;;;2.27;;
2802;SDS011;1409;51.154;6.938;2024-03-25T09:19:14;4.87;;;1.93;;
2802;SDS011;1409;51.154;6.938;2024-03-25T09:21:41;7.70;;;2.40;;
2802;SDS011;1409;51.154;6.938;2024-03-25T09:24:07;6.60;;;2.50;;
2802;SDS011;1409;51.154;6.938;2024-03-25T09:26:34;6.43;;;3.20;;
2802;SDS011;1409;51.154;6.938;2024-03-25T09:29:00;9.60;;;3.23;;
2802;SDS011;1409;51.154;6.938;2024-03-25T09:31:27;6.17;;;3.23;;
2802;SDS011;1409;51.154;6.938;2024-03-25T09:33:55;8.63;;;2.83;;
2802;SDS011;1409;51.154;6.938;2024-03-25T09:36:22;9.33;;;3.97;;
2802;SDS011;1409;51.154;6.938;2024-03-25T09:38:48;10.03;;;2.97;;
2802;SDS011;1409;51.154;6.938;2024-03-25T09:41:16;4.07;;;2.60;;
2802;SDS011;1409;51.154;6.938;2024-03-25T09:43:43;4.63;;;2.70;;
2802;SDS011;1409;51.154;6.938;2024-03-25T09:46:10;4.73;;;2.60;;
2802;SDS011;1409;51.154;6.938;2024-03-25T09:48:37;6.80;;;2.53;;
2802;SDS011;1409;51.154;6.938;2024-03-25T09:51:05;4.27;;;2.20;;
2802;SDS011;1409;51.154;6.938;2024-03-25T09:53:32;5.43;;;2.87;;
2802;SDS011;1409;51.154;6.938;2024-03-25T09:55:58;9.47;;;2.87;;
2802;SDS011;1409;51.154;6.938;2024-03-25T09:58:25;4.73;;;2.40;;
2802;SDS011;1409;51.154;6.938;2024-03-25T10:00:53;7.27;;;2.57;;
2802;SDS011;1409;51.154;6.938;2024-03-25T10:03:19;5.63;;;2.33;;
2802;SDS011;1409;51.154;6.938;2024-03-25T10:05:46;13.13;;;6.70;;
2802;SDS011;1409;51.154;6.938;2024-03-25T10:08:19;10.20;;;3.57;;
2802;SDS011;1409;51.154;6.938;2024-03-25T10:10:45;13.17;;;10.20;;
2802;SDS011;1409;51.154;6.938;2024-03-25T10:13:12;6.63;;;2.87;;
2802;SDS011;1409;51.154;6.938;2024-03-25T10:15:39;5.20;;;2.33;;
2802;SDS011;1409;51.154;6.938;2024-03-25T10:18:06;5.83;;;2.10;;
2802;SDS011;1409;51.154;6.938;2024-03-25T10:20:32;4.37;;;2.23;;
2802;SDS011;1409;51.154;6.938;2024-03-25T10:22:59;5.97;;;1.93;;
2802;SDS011;1409;51.154;6.938;2024-03-25T10:25:27;7.50;;;1.77;;
2802;SDS011;1409;51.154;6.938;2024-03-25T10:27:54;5.50;;;2.30;;
2802;SDS011;1409;51.154;6.938;2024-03-25T10:30:21;4.73;;;1.57;;
2802;SDS011;1409;51.154;6.938;2024-03-25T10:32:57;3.83;;;2.00;;
2802;SDS011;1409;51.154;6.938;2024-03-25T10:35:25;5.93;;;2.10;;
2802;SDS011;1409;51.154;6.938;2024-03-25T10:37:53;4.37;;;1.87;;
2802;SDS011;1409;51.154;6.938;2024-03-25T10:40:22;3.47;;;1.80;;
2802;SDS011;1409;51.154;6.938;2024-03-25T10:42:50;6.03;;;2.53;;
2802;SDS011;1409;51.154;6.938;2024-03-25T10:45:17;4.30;;;1.53;;
2802;SDS011;1409;51.154;6.938;2024-03-25T10:47:44;4.23;;;1.93;;
2802;SDS011;1409;51.154;6.938;2024-03-25T10:50:10;4.20;;;1.77;;
2802;SDS011;1409;51.154;6.938;2024-03-25T10:52:40;5.30;;;2.07;;
2802;SDS011;1409;51.154;6.938;2024-03-25T10:55:07;5.23;;;2.50;;
2802;SDS011;1409;51.154;6.938;2024-03-25T10:57:35;4.03;;;1.90;;
2802;SDS011;1409;51.154;6.938;2024-03-25T11:00:03;3.57;;;1.83;;
2802;SDS011;1409;51.154;6.938;2024-03-25T11:02:30;3.60;;;1.80;;
2802;SDS011;1409;51.154;6.938;2024-03-25T11:04:57;2.87;;;1.70;;
2802;SDS011;1409;51.154;6.938;2024-03-25T11:07:29;4.77;;;1.93;;
2802;SDS011;1409;51.154;6.938;2024-03-25T11:10:02;3.07;;;1.60;;
2802;SDS011;1409;51.154;6.938;2024-03-25T11:12:37;3.43;;;1.73;;
2802;SDS011;1409;51.154;6.938;2024-03-25T11:15:06;8.47;;;1.83;;
2802;SDS011;1409;51.154;6.938;2024-03-25T11:17:34;3.50;;;1.70;;
2802;SDS011;1409;51.154;6.938;2024-03-25T11:20:11;2.43;;;1.50;;
2802;SDS011;1409;51.154;6.938;2024-03-25T11:22:46;5.17;;;1.97;;
2802;SDS011;1409;51.154;6.938;2024-03-25T11:25:14;4.33;;;1.80;;
2802;SDS011;1409;51.154;6.938;2024-03-25T11:27:42;6.17;;;2.00;;
2802;SDS011;1409;51.154;6.938;2024-03-25T11:30:11;6.27;;;2.03;;
2802;SDS011;1409;51.154;6.938;2024-03-25T11:32:44;4.87;;;1.97;;
2802;SDS011;1409;51.154;6.938;2024-03-25T11:35:11;4.50;;;1.47;;
2802;SDS011;1409;51.154;6.938;2024-03-25T11:37:41;5.57;;;2.00;;
2802;SDS011;1409;51.154;6.938;2024-03-25T11:40:07;4.53;;;1.80;;
2802;SDS011;1409;51.154;6.938;2024-03-25T11:42:34;7.47;;;2.03;;
2802;SDS011;1409;51.154;6.938;2024-03-25T11:45:02;5.37;;;2.43;;
2802;SDS011;1409;51.154;6.938;2024-03-25T11:47:30;7.03;;;2.33;;
2802;SDS011;1409;51.154;6.938;2024-03-25T11:49:56;4.27;;;2.10;;
2802;SDS011;1409;51.154;6.938;2024-03-25T11:52:23;5.87;;;2.13;;
2802;SDS011;1409;51.154;6.938;2024-03-25T11:54:53;6.47;;;2.30;;
2802;SDS011;1409;51.154;6.938;2024-03-25T11:57:22;6.33;;;2.43;;
2802;SDS011;1409;51.154;6.938;2024-03-25T11:59:48;4.43;;;2.70;;
2802;SDS011;1409;51.154;6.938;2024-03-25T12:02:15;3.70;;;2.20;;
2802;SDS011;1409;51.154;6.938;2024-03-25T12:04:43;5.17;;;2.20;;
2802;SDS011;1409;51.154;6.938;2024-03-25T12:07:11;5.23;;;2.23;;
2802;SDS011;1409;51.154;6.938;2024-03-25T12:09:38;4.67;;;2.20;;
2802;SDS011;1409;51.154;6.938;2024-03-25T12:12:23;3.60;;;2.17;;
2802;SDS011;1409;51.154;6.938;2024-03-25T12:14:49;4.00;;;2.00;;
2802;SDS011;1409;51.154;6.938;2024-03-25T12:17:16;3.83;;;1.67;;
2802;SDS011;1409;51.154;6.938;2024-03-25T12:19:45;4.07;;;1.83;;
2802;SDS011;1409;51.154;6.938;2024-03-25T12:22:11;3.23;;;1.77;;
2802;SDS011;1409;51.154;6.938;2024-03-25T12:24:38;5.20;;;1.87;;
2802;SDS011;1409;51.154;6.938;2024-03-25T12:27:05;2.20;;;1.77;;
2802;SDS011;1409;51.154;6.938;2024-03-25T12:29:31;5.83;;;1.97;;
2802;SDS011;1409;51.154;6.938;2024-03-25T12:31:58;2.77;;;1.67;;
2802;SDS011;1409;51.154;6.938;2024-03-25T12:34:25;3.37;;;1.50;;
2802;SDS011;1409;51.154;6.938;2024-03-25T12:37:00;2.57;;;1.63;;
2802;SDS011;1409;51.154;6.938;2024-03-25T12:39:26;3.50;;;1.67;;
2802;SDS011;1409;51.154;6.938;2024-03-25T12:41:54;4.20;;;2.30;;
2802;SDS011;1409;51.154;6.938;2024-03-25T12:44:21;4.17;;;2.37;;
2802;SDS011;1409;51.154;6.938;2024-03-25T12:46:48;4.33;;;1.77;;
2802;SDS011;1409;51.154;6.938;2024-03-25T12:49:14;5.07;;;2.07;;
2802;SDS011;1409;51.154;6.938;2024-03-25T12:51:41;4.37;;;2.27;;
2802;SDS011;1409;51.154;6.938;2024-03-25T12:54:09;4.30;;;2.13;;
2802;SDS011;1409;51.154;6.938;2024-03-25T12:56:35;4.90;;;1.60;;
2802;SDS011;1409;51.154;6.938;2024-03-25T12:59:02;4.67;;;1.80;;
2802;SDS011;1409;51.154;6.938;2024-03-25T13:01:28;2.63;;;1.63;;
2802;SDS011;1409;51.154;6.938;2024-03-25T13:03:55;4.27;;;1.70;;
2802;SDS011;1409;51.154;6.938;2024-03-25T13:06:22;3.20;;;1.90;;
2802;SDS011;1409;51.154;6.938;2024-03-25T13:08:48;3.20;;;1.93;;
2802;SDS011;1409;51.154;6.938;2024-03-25T13:11:16;3.67;;;1.60;;
2802;SDS011;1409;51.154;6.938;2024-03-25T13:13:43;2.73;;;1.37;;
2802;SDS011;1409;51.154;6.938;2024-03-25T13:16:10;4.00;;;1.53;;
2802;SDS011;1409;51.154;6.938;2024-03-25T13:18:37;3.80;;;1.63;;
2802;SDS011;1409;51.154;6.938;2024-03-25T13:21:03;2.47;;;1.67;;
2802;SDS011;1409;51.154;6.938;2024-03-25T13:23:30;3.77;;;1.40;;
2802;SDS011;1409;51.154;6.938;2024-03-25T13:25:57;2.83;;;1.63;;
2802;SDS011;1409;51.154;6.938;2024-03-25T13:28:25;2.50;;;1.33;;
2802;SDS011;1409;51.154;6.938;2024-03-25T13:30:51;4.53;;;1.83;;
2802;SDS011;1409;51.154;6.938;2024-03-25T13:33:18;1.87;;;1.33;;
2802;SDS011;1409;51.154;6.938;2024-03-25T13:35:45;2.23;;;1.30;;
2802;SDS011;1409;51.154;6.938;2024-03-25T13:38:11;4.77;;;1.47;;
2802;SDS011;1409;51.154;6.938;2024-03-25T13:40:39;3.93;;;1.77;;
2802;SDS011;1409;51.154;6.938;2024-03-25T13:43:05;2.43;;;1.67;;
2802;SDS011;1409;51.154;6.938;2024-03-25T13:45:33;3.30;;;1.50;;
2802;SDS011;1409;51.154;6.938;2024-03-25T13:48:00;3.93;;;1.67;;
2802;SDS011;1409;51.154;6.938;2024-03-25T13:50:26;5.40;;;2.33;;
2802;SDS011;1409;51.154;6.938;2024-03-25T13:52:53;3.27;;;1.70;;
2802;SDS011;1409;51.154;6.938;2024-03-25T13:55:20;3.57;;;2.00;;
2802;SDS011;1409;51.154;6.938;2024-03-25T13:57:46;2.67;;;1.53;;
2802;SDS011;1409;51.154;6.938;2024-03-25T14:00:13;4.97;;;1.70;;
2802;SDS011;1409;51.154;6.938;2024-03-25T14:02:41;3.23;;;1.53;;
2802;SDS011;1409;51.154;6.938;2024-03-25T14:05:08;4.03;;;1.50;;
2802;SDS011;1409;51.154;6.938;2024-03-25T14:07:34;2.13;;;1.37;;
2802;SDS011;1409;51.154;6.938;2024-03-25T14:10:01;5.57;;;1.80;;
2802;SDS011;1409;51.154;6.938;2024-03-25T14:12:29;1.43;;;1.30;;
2802;SDS011;1409;51.154;6.938;2024-03-25T14:14:55;5.37;;;1.90;;
2802;SDS011;1409;51.154;6.938;2024-03-25T14:17:22;5.80;;;1.87;;
2802;SDS011;1409;51.154;6.938;2024-03-25T14:19:50;2.07;;;1.43;;
2802;SDS011;1409;51.154;6.938;2024-03-25T14:22:19;5.77;;;2.03;;
2802;SDS011;1409;51.154;6.938;2024-03-25T14:24:46;5.53;;;1.63;;
2802;SDS011;1409;51.154;6.938;2024-03-25T14:27:12;3.37;;;2.07;;
2802;SDS011;1409;51.154;6.938;2024-03-25T14:29:39;5.50;;;2.20;;
2802;SDS011;1409;51.154;6.938;2024-03-25T14:32:06;3.50;;;1.60;;
2802;SDS011;1409;51.154;6.938;2024-03-25T14:34:32;3.40;;;1.40;;
2802;SDS011;1409;51.154;6.938;2024-03-25T14:37:00;3.10;;;1.67;;
2802;SDS011;1409;51.154;6.938;2024-03-25T14:39:27;8.07;;;3.17;;
2802;SDS011;1409;51.154;6.938;2024-03-25T14:41:54;3.07;;;1.60;;
2802;SDS011;1409;51.154;6.938;2024-03-25T14:44:20;4.17;;;1.70;;
2802;SDS011;1409;51.154;6.938;2024-03-25T14:46:47;2.73;;;1.30;;
2802;SDS011;1409;51.154;6.938;2024-03-25T14:49:13;4.80;;;1.57;;
2802;SDS011;1409;51.154;6.938;2024-03-25T14:51:40;1.83;;;1.30;;
2802;SDS011;1409;51.154;6.938;2024-03-25T14:54:08;2.13;;;1.20;;
2802;SDS011;1409;51.154;6.938;2024-03-25T14:56:34;3.47;;;1.37;;
2802;SDS011;1409;51.154;6.938;2024-03-25T14:59:01;1.67;;;1.30;;
2802;SDS011;1409;51.154;6.938;2024-03-25T15:01:28;3.20;;;1.30;;
2802;SDS011;1409;51.154;6.938;2024-03-25T15:03:54;2.93;;;1.43;;
2802;SDS011;1409;51.154;6.938;2024-03-25T15:06:21;4.77;;;1.33;;
2802;SDS011;1409;51.154;6.938;2024-03-25T15:08:47;2.53;;;1.27;;
2802;SDS011;1409;51.154;6.938;2024-03-25T15:11:15;1.80;;;1.00;;
2802;SDS011;1409;51.154;6.938;2024-03-25T15:13:42;2.03;;;1.13;;